Time;durP1;ratioP1;P1;durP2;ratioP2;P2;SDS_P1;SDS_P2;PMS_P1;PMS_P2;Temp;Humidity;BMP_temperature;BMP_pressure;BME280_temperature;BME280_humidity;BME280_pressure;Samples;Min_cycle;Max_cycle;Signal;HPM_P1;HPM_P2
2022/06/26 00:00:32;;;;;;;5.12;3.75;;;;;;;19.55;70.46;99640.95;1710122;82;21038;-66
2022/06/26 00:02:58;;;;;;;5.25;3.90;;;;;;;19.53;70.63;99634.31;1721785;82;21063;-67
2022/06/26 00:05:25;;;;;;;5.60;3.50;;;;;;;19.52;70.63;99638.89;1723462;82;21032;-67
2022/06/26 00:07:52;;;;;;;6.65;3.80;;;;;;;19.52;70.50;99642.50;1717606;82;21137;-66
2022/06/26 00:10:20;;;;;;;6.17;4.10;;;;;;;19.49;70.21;99645.23;1720376;82;21545;-66
2022/06/26 00:12:48;;;;;;;5.20;3.42;;;;;;;19.46;70.28;99646.20;1715842;82;21203;-67
2022/06/26 00:15:15;;;;;;;5.37;3.80;;;;;;;19.42;70.43;99646.76;1712488;82;21099;-67
2022/06/26 00:17:41;;;;;;;6.25;3.40;;;;;;;19.37;70.64;99648.48;1721122;82;21039;-66
2022/06/26 00:20:09;;;;;;;7.08;3.50;;;;;;;19.33;70.72;99654.59;1718773;82;21085;-67
2022/06/26 00:22:36;;;;;;;4.50;4.00;;;;;;;19.30;70.65;99660.94;1716021;82;21005;-67
2022/06/26 00:25:04;;;;;;;5.87;3.80;;;;;;;19.26;70.74;99652.50;1713330;82;21093;-68
2022/06/26 00:27:31;;;;;;;5.58;3.42;;;;;;;19.24;70.96;99655.47;1720483;82;21013;-66
2022/06/26 00:29:58;;;;;;;6.80;3.50;;;;;;;19.20;71.20;99650.64;1723380;82;21716;-64
2022/06/26 00:32:25;;;;;;;4.45;3.72;;;;;;;19.17;71.21;99652.80;1712565;82;21030;-66
2022/06/26 00:34:53;;;;;;;6.67;3.72;;;;;;;19.14;71.34;99653.52;1735730;81;21071;-66
2022/06/26 00:37:20;;;;;;;6.03;4.25;;;;;;;19.12;71.29;99653.13;1708015;82;21149;-67
2022/06/26 00:39:48;;;;;;;7.08;3.90;;;;;;;19.10;71.09;99656.84;1736127;81;21034;-67
2022/06/26 00:42:17;;;;;;;5.92;3.83;;;;;;;19.06;70.96;99649.80;1720131;82;21015;-66
2022/06/26 00:44:43;;;;;;;4.20;3.40;;;;;;;19.05;71.00;99659.95;1716635;82;21063;-67
2022/06/26 00:47:14;;;;;;;4.83;3.52;;;;;;;19.03;71.29;99665.09;1715618;82;21562;-67
2022/06/26 00:49:41;;;;;;;4.62;3.70;;;;;;;19.01;71.42;99667.45;1721317;82;21636;-65
2022/06/26 00:52:08;;;;;;;5.92;3.75;;;;;;;18.98;71.42;99655.88;1725110;82;21054;-66
2022/06/26 00:54:35;;;;;;;6.85;4.20;;;;;;;18.98;71.50;99664.83;1711212;82;21464;-67
2022/06/26 00:57:04;;;;;;;8.28;4.10;;;;;;;18.97;71.55;99673.78;1716136;82;21072;-67
2022/06/26 00:59:34;;;;;;;4.67;3.80;;;;;;;18.96;71.47;99669.39;1716184;82;21044;-66
2022/06/26 01:02:00;;;;;;;8.83;4.45;;;;;;;18.95;71.52;99666.37;1718666;82;21134;-66
2022/06/26 01:04:27;;;;;;;7.08;4.60;;;;;;;18.92;71.61;99658.75;1728653;81;21532;-66
2022/06/26 01:06:53;;;;;;;6.55;3.87;;;;;;;18.91;71.66;99661.92;1732699;82;21492;-67
2022/06/26 01:09:20;;;;;;;5.83;4.08;;;;;;;18.88;71.77;99663.48;1734311;81;21043;-67
2022/06/26 01:11:47;;;;;;;9.30;3.58;;;;;;;18.85;71.93;99665.02;1729810;81;21068;-67
2022/06/26 01:14:14;;;;;;;7.30;4.42;;;;;;;18.84;72.04;99663.42;1690908;82;21244;-66
2022/06/26 01:16:41;;;;;;;13.55;6.03;;;;;;;18.85;72.10;99663.63;1717028;82;21005;-67
2022/06/26 01:19:09;;;;;;;6.97;4.97;;;;;;;18.85;71.94;99662.84;1716103;82;21103;-66
2022/06/26 01:21:36;;;;;;;9.60;4.50;;;;;;;18.83;71.88;99665.19;1715425;82;21006;-65
2022/06/26 01:24:04;;;;;;;5.75;4.28;;;;;;;18.82;72.07;99673.33;1720596;82;21153;-67
2022/06/26 01:26:32;;;;;;;4.62;4.00;;;;;;;18.79;72.12;99667.10;1713166;82;21160;-66
2022/06/26 01:28:58;;;;;;;7.58;3.87;;;;;;;18.76;72.23;99667.85;1711989;82;21075;-66
2022/06/26 01:31:25;;;;;;;6.90;4.60;;;;;;;18.75;72.28;99669.05;1721569;82;21032;-66
2022/06/26 01:33:54;;;;;;;5.83;4.03;;;;;;;18.73;72.24;99668.81;1718235;82;21024;-66
2022/06/26 01:36:21;;;;;;;7.53;4.20;;;;;;;18.72;72.33;99667.20;1726598;82;21539;-67
2022/06/26 01:38:49;;;;;;;5.28;4.25;;;;;;;18.72;72.41;99673.37;1706396;82;21136;-67
2022/06/26 01:41:15;;;;;;;5.90;3.67;;;;;;;18.71;72.44;99670.38;1722772;82;21062;-67
2022/06/26 01:43:44;;;;;;;4.95;4.37;;;;;;;18.70;72.30;99667.34;1717989;82;21713;-67
2022/06/26 01:46:12;;;;;;;6.47;4.35;;;;;;;18.69;72.12;99670.75;1720536;82;22129;-66
2022/06/26 01:48:39;;;;;;;5.40;4.30;;;;;;;18.67;72.11;99673.67;1717015;82;21523;-67
2022/06/26 01:51:08;;;;;;;9.23;4.60;;;;;;;18.66;72.07;99684.63;1728775;82;21051;-67
2022/06/26 01:53:37;;;;;;;7.90;4.55;;;;;;;18.65;71.87;99683.00;1706085;82;21496;-66
2022/06/26 01:56:05;;;;;;;6.25;4.10;;;;;;;18.62;71.85;99687.36;1730012;82;21091;-67
2022/06/26 01:58:37;;;;;;;9.60;4.87;;;;;;;18.59;71.96;99690.89;1703763;82;21087;-67
2022/06/26 02:01:07;;;;;;;5.87;3.80;;;;;;;18.57;71.83;99685.69;1737666;81;21098;-66
2022/06/26 02:03:36;;;;;;;7.20;4.10;;;;;;;18.57;71.85;99689.88;1708595;81;21876;-66
2022/06/26 02:06:04;;;;;;;4.67;4.15;;;;;;;18.57;71.81;99687.66;1716963;83;21106;-66
2022/06/26 02:08:31;;;;;;;5.12;4.47;;;;;;;18.56;71.86;99694.42;1708227;82;21017;-66
2022/06/26 02:13:44;;;;;;;5.58;4.03;;;;;;;18.54;72.37;99698.17;1708573;82;21129;-67
2022/06/26 02:16:19;;;;;;;6.30;4.80;;;;;;;18.53;72.44;99694.56;1725843;81;21250;-66
2022/06/26 02:18:49;;;;;;;7.35;4.78;;;;;;;18.50;72.34;99695.31;1700964;82;21063;-67
2022/06/26 02:21:20;;;;;;;5.62;3.92;;;;;;;18.52;72.36;99700.52;1725965;82;21587;-67
2022/06/26 02:23:49;;;;;;;7.03;3.80;;;;;;;18.51;72.38;99705.89;1710709;82;21051;-67
2022/06/26 02:26:17;;;;;;;7.10;4.72;;;;;;;18.53;72.32;99708.52;1707057;82;20999;-67
2022/06/26 02:28:48;;;;;;;5.97;4.33;;;;;;;18.56;72.27;99708.38;1699469;82;21576;-66
2022/06/26 02:31:17;;;;;;;6.67;4.22;;;;;;;18.58;72.19;99711.58;1687896;82;21046;-66
2022/06/26 02:33:44;;;;;;;6.40;4.42;;;;;;;18.60;72.21;99713.41;1716264;82;21092;-67
2022/06/26 02:36:12;;;;;;;5.95;4.35;;;;;;;18.62;72.28;99708.28;1722105;82;21020;-66
2022/06/26 02:38:40;;;;;;;9.53;4.40;;;;;;;18.63;72.57;99711.27;1714341;81;21067;-66
2022/06/26 02:41:08;;;;;;;9.73;4.28;;;;;;;18.63;72.79;99707.70;1722082;82;21101;-65
2022/06/26 02:43:36;;;;;;;5.83;4.50;;;;;;;18.61;73.04;99703.89;1713274;81;21059;-66
2022/06/26 02:46:04;;;;;;;5.67;4.37;;;;;;;18.63;73.25;99718.25;1720137;82;21102;-67
2022/06/26 02:48:30;;;;;;;7.25;4.17;;;;;;;18.72;73.14;99711.86;1717786;82;21057;-66
2022/06/26 02:50:57;;;;;;;7.30;4.40;;;;;;;18.79;73.22;99719.55;1713678;82;21043;-67
2022/06/26 02:53:24;;;;;;;5.60;4.08;;;;;;;18.83;73.25;99721.80;1711367;82;21138;-67
2022/06/26 02:55:50;;;;;;;8.53;4.62;;;;;;;18.87;73.13;99719.68;1687246;82;21125;-65
2022/06/26 02:58:18;;;;;;;8.78;5.03;;;;;;;18.86;73.09;99718.87;1715309;82;21060;-66
2022/06/26 03:00:51;;;;;;;7.60;4.20;;;;;;;18.85;73.21;99720.84;1710061;82;21066;-65
2022/06/26 03:03:18;;;;;;;9.33;4.47;;;;;;;18.87;73.19;99722.47;1715194;82;21037;-67
2022/06/26 03:05:44;;;;;;;6.75;4.45;;;;;;;18.89;73.31;99720.91;1709856;82;21056;-66
2022/06/26 03:08:12;;;;;;;7.83;4.15;;;;;;;18.93;73.41;99721.79;1714408;82;21508;-66
2022/06/26 03:10:40;;;;;;;5.08;4.12;;;;;;;18.97;73.49;99731.02;1714749;82;21531;-65
2022/06/26 03:13:06;;;;;;;11.90;5.10;;;;;;;19.04;73.45;99733.73;1703478;82;21651;-66
2022/06/26 03:15:33;;;;;;;16.55;6.53;;;;;;;19.09;73.58;99731.99;1716899;82;21109;-66
2022/06/26 03:18:02;;;;;;;14.95;4.80;;;;;;;19.14;73.67;99735.89;1711184;82;21631;-66
2022/06/26 03:20:31;;;;;;;19.25;5.05;;;;;;;19.21;73.77;99734.63;1713395;82;21130;-66
2022/06/26 03:22:59;;;;;;;12.75;5.10;;;;;;;19.24;73.94;99730.30;1714944;82;21624;-66
2022/06/26 03:25:28;;;;;;;23.92;7.42;;;;;;;19.29;74.01;99735.56;1686468;83;21014;-66
2022/06/26 03:27:54;;;;;;;26.45;6.72;;;;;;;19.34;74.21;99737.23;1720107;82;21572;-66
2022/06/26 03:30:21;;;;;;;26.02;7.03;;;;;;;19.40;74.20;99730.70;1715118;82;21542;-66
2022/06/26 03:32:51;;;;;;;21.02;5.70;;;;;;;19.44;74.15;99727.39;1711548;82;21657;-66
2022/06/26 03:35:21;;;;;;;14.60;5.90;;;;;;;19.50;74.06;99730.07;1709790;83;21093;-66
2022/06/26 03:37:48;;;;;;;12.15;4.47;;;;;;;19.58;74.00;99731.00;1692753;83;21586;-65
2022/06/26 03:40:15;;;;;;;7.17;3.77;;;;;;;19.65;74.08;99740.86;1672129;83;21069;-65
2022/06/26 03:42:41;;;;;;;9.03;4.58;;;;;;;19.72;74.09;99740.77;1711618;82;21065;-66
2022/06/26 03:45:10;;;;;;;6.90;3.77;;;;;;;19.76;73.84;99741.02;1727222;81;21047;-65
2022/06/26 03:47:37;;;;;;;5.60;3.90;;;;;;;19.83;73.70;99743.92;1724413;81;21388;-66
2022/06/26 03:50:09;;;;;;;4.92;3.60;;;;;;;19.91;73.84;99739.23;1711637;83;21108;-66
2022/06/26 03:52:37;;;;;;;5.72;3.75;;;;;;;20.01;73.72;99734.95;1691613;83;21089;-65
2022/06/26 03:55:06;;;;;;;9.13;3.90;;;;;;;20.14;73.45;99741.16;1691608;83;21355;-66
2022/06/26 03:57:35;;;;;;;7.60;3.98;;;;;;;20.27;73.26;99735.30;1694277;82;21083;-65
2022/06/26 04:00:02;;;;;;;7.25;3.80;;;;;;;20.40;72.84;99742.85;1717853;82;21061;-66
2022/06/26 04:02:33;;;;;;;6.78;3.58;;;;;;;20.52;72.50;99750.96;1719597;82;21585;-67
2022/06/26 04:04:59;;;;;;;7.37;3.65;;;;;;;20.63;72.46;99744.09;1718916;82;21012;-66
2022/06/26 04:07:26;;;;;;;7.08;3.67;;;;;;;20.74;72.62;99740.60;1714415;82;21152;-66
2022/06/26 04:09:54;;;;;;;6.35;4.30;;;;;;;20.84;72.24;99737.11;1717846;82;21107;-66
2022/06/26 04:12:23;;;;;;;5.45;3.92;;;;;;;20.92;72.05;99741.58;1713084;82;21056;-66
2022/06/26 04:14:50;;;;;;;11.15;3.55;;;;;;;21.02;71.36;99747.67;1715764;82;21027;-66
2022/06/26 04:17:17;;;;;;;10.93;4.53;;;;;;;21.10;70.99;99743.74;1723133;82;21044;-65
2022/06/26 04:19:46;;;;;;;5.92;3.80;;;;;;;21.20;70.60;99748.44;1712407;82;21160;-66
2022/06/26 04:22:12;;;;;;;3.70;3.25;;;;;;;21.26;69.62;99741.27;1722570;82;21067;-66
2022/06/26 04:24:41;;;;;;;7.12;3.12;;;;;;;21.34;69.00;99744.33;1719201;82;21007;-66
2022/06/26 04:27:08;;;;;;;3.55;2.85;;;;;;;21.42;68.63;99741.59;1718735;82;21107;-66
2022/06/26 04:29:36;;;;;;;3.58;2.98;;;;;;;21.50;68.27;99744.64;1720150;82;21053;-66
2022/06/26 04:32:05;;;;;;;7.65;3.20;;;;;;;21.58;67.64;99746.92;1714125;82;21194;-67
2022/06/26 04:34:34;;;;;;;5.22;3.42;;;;;;;21.64;67.43;99746.75;1716419;82;21067;-66
2022/06/26 04:37:08;;;;;;;4.80;2.90;;;;;;;21.69;66.96;99749.19;1724231;82;21590;-66
2022/06/26 04:39:36;;;;;;;5.75;3.47;;;;;;;21.74;66.68;99754.42;1707893;82;21007;-65
2022/06/26 04:42:06;;;;;;;5.83;3.05;;;;;;;21.78;65.68;99757.25;1722563;82;21074;-67
2022/06/26 04:44:34;;;;;;;7.15;3.05;;;;;;;21.81;65.70;99752.88;1725586;81;21226;-67
2022/06/26 04:47:03;;;;;;;6.47;3.55;;;;;;;21.86;65.54;99751.91;1718349;82;21074;-66
2022/06/26 04:49:33;;;;;;;3.22;2.83;;;;;;;21.93;65.40;99752.55;1703306;82;21027;-66
2022/06/26 04:51:59;;;;;;;7.65;3.05;;;;;;;22.01;65.02;99756.19;1726712;82;21023;-66
2022/06/26 04:54:34;;;;;;;6.53;2.80;;;;;;;22.07;64.46;99756.03;1725278;81;21019;-66
2022/06/26 04:57:03;;;;;;;4.62;3.00;;;;;;;22.10;64.00;99756.64;1714652;82;21212;-67
2022/06/26 04:59:31;;;;;;;5.30;2.95;;;;;;;22.15;63.99;99759.66;1728090;81;21024;-65
2022/06/26 05:02:08;;;;;;;6.95;3.02;;;;;;;22.21;63.73;99755.88;1710853;83;22332;-66
2022/06/26 05:04:47;;;;;;;7.45;2.98;;;;;;;22.27;63.77;99754.30;1742564;81;21051;-66
2022/06/26 05:07:32;;;;;;;10.23;3.02;;;;;;;22.35;63.40;99755.11;1696417;82;21042;-65
2022/06/26 05:10:00;;;;;;;7.12;3.30;;;;;;;22.43;62.78;99758.77;1715235;82;21566;-67
2022/06/26 05:12:29;;;;;;;3.95;3.02;;;;;;;22.47;63.40;99758.16;1743721;81;21052;-66
2022/06/26 05:15:11;;;;;;;6.28;3.08;;;;;;;22.51;63.13;99754.78;1713488;82;21512;-67
2022/06/26 05:17:41;;;;;;;7.80;3.33;;;;;;;22.57;62.56;99764.41;1738957;81;21117;-66
2022/06/26 05:20:09;;;;;;;4.35;2.87;;;;;;;22.63;61.94;99758.44;1745254;81;21071;-66
2022/06/26 05:22:37;;;;;;;5.20;2.75;;;;;;;22.66;61.29;99765.47;1743727;81;21817;-67
2022/06/26 05:25:05;;;;;;;4.17;3.12;;;;;;;22.70;61.30;99762.08;1741464;81;21143;-67
2022/06/26 05:27:32;;;;;;;4.47;2.85;;;;;;;22.75;60.83;99767.90;1750314;81;20995;-66
2022/06/26 05:29:58;;;;;;;3.15;2.75;;;;;;;22.81;60.88;99764.11;1747420;81;21070;-67
2022/06/26 05:32:31;;;;;;;4.03;3.62;;;;;;;22.88;61.06;99767.53;1749809;81;21056;-65
2022/06/26 05:34:59;;;;;;;;;;;;;;;22.95;61.08;99768.92;1745935;81;21461;-66
2022/06/26 05:37:30;;;;;;;3.90;3.00;;;;;;;23.01;60.74;99774.36;1749922;81;20134;-64
2022/06/26 05:39:57;;;;;;;7.95;3.52;;;;;;;23.06;60.11;99773.97;1746382;81;21084;-66
2022/06/26 05:42:26;;;;;;;8.10;3.30;;;;;;;23.11;59.97;99767.14;1715121;82;21004;-67
2022/06/26 05:44:52;;;;;;;5.58;2.67;;;;;;;23.18;59.78;99769.15;1718200;82;21126;-67
2022/06/26 05:47:21;;;;;;;4.17;2.70;;;;;;;23.26;59.63;99771.34;1723858;82;21108;-67
2022/06/26 05:50:07;;;;;;;5.37;2.83;;;;;;;23.31;59.34;99770.94;1718871;82;21081;-65
2022/06/26 05:52:36;;;;;;;4.03;2.83;;;;;;;23.35;59.01;99766.92;1709463;81;21187;-66
2022/06/26 05:55:21;;;;;;;6.83;2.72;;;;;;;23.45;58.54;99771.58;1697244;82;21128;-66
2022/06/26 05:58:01;;;;;;;12.65;2.92;;;;;;;23.49;58.48;99765.33;1717372;82;21050;-66
2022/06/26 06:00:42;;;;;;;5.65;2.92;;;;;;;23.58;57.98;99762.92;1614184;88;21829;-68
2022/06/26 06:03:09;;;;;;;8.35;3.27;;;;;;;23.64;57.87;99759.11;1698128;82;21094;-67
2022/06/26 06:05:36;;;;;;;4.47;3.05;;;;;;;23.69;57.76;99760.10;1724704;82;21074;-65
2022/06/26 06:08:03;;;;;;;6.08;2.80;;;;;;;23.73;57.26;99765.69;1666602;82;21122;-66
2022/06/26 06:10:31;;;;;;;3.70;2.77;;;;;;;23.78;56.78;99768.72;1699627;82;21068;-66
2022/06/26 06:12:58;;;;;;;5.20;2.90;;;;;;;23.81;56.66;99777.16;1709537;82;21899;-64
2022/06/26 06:15:24;;;;;;;7.78;2.42;;;;;;;23.84;56.46;99772.71;1743461;81;21003;-66
2022/06/26 06:17:52;;;;;;;8.20;2.70;;;;;;;23.89;56.61;99774.30;1710075;82;21005;-66
2022/06/26 06:20:24;;;;;;;6.08;2.72;;;;;;;23.98;56.19;99769.06;1728763;81;21687;-66
2022/06/26 06:22:54;;;;;;;3.60;3.00;;;;;;;24.04;56.10;99774.45;1724064;82;21059;-66
2022/06/26 06:25:22;;;;;;;5.83;3.22;;;;;;;24.11;55.87;99779.85;1728023;81;21818;-65
2022/06/26 06:27:49;;;;;;;4.97;2.90;;;;;;;24.14;55.98;99781.88;1715960;83;21064;-67
2022/06/26 06:30:19;;;;;;;7.42;2.77;;;;;;;24.19;56.02;99784.30;1719373;82;21359;-67
2022/06/26 06:32:47;;;;;;;5.28;3.20;;;;;;;24.24;56.57;99783.07;1715891;82;21118;-67
2022/06/26 06:35:27;;;;;;;6.95;3.20;;;;;;;24.29;56.22;99785.47;1683529;82;21053;-66
2022/06/26 06:37:55;;;;;;;4.90;2.70;;;;;;;24.36;56.27;99784.62;1713368;82;21123;-67
2022/06/26 06:40:24;;;;;;;8.00;2.50;;;;;;;24.40;55.09;99786.21;1711243;82;21015;-67
2022/06/26 06:42:52;;;;;;;12.33;2.90;;;;;;;24.44;54.03;99784.78;1714323;82;21019;-67
2022/06/26 06:45:19;;;;;;;3.98;2.70;;;;;;;24.49;53.96;99787.17;1699403;82;21034;-67
2022/06/26 06:47:57;;;;;;;8.18;3.15;;;;;;;24.57;53.37;99787.15;1703766;82;21014;-67
2022/06/26 06:50:32;;;;;;;9.53;3.12;;;;;;;24.63;53.41;99782.68;1675570;82;21529;-66
2022/06/26 06:53:04;;;;;;;5.85;2.67;;;;;;;24.68;53.36;99784.44;1717812;82;21021;-67
2022/06/26 06:55:31;;;;;;;6.08;2.65;;;;;;;24.76;53.81;99789.44;1717076;82;21019;-66
2022/06/26 06:58:01;;;;;;;3.25;2.47;;;;;;;24.84;53.56;99786.59;1712102;82;21131;-67
2022/06/26 07:00:30;;;;;;;8.90;2.80;;;;;;;24.89;52.63;99791.78;1709955;82;20988;-68
2022/06/26 07:03:01;;;;;;;8.00;3.00;;;;;;;24.89;52.75;99790.38;1693011;82;21115;-67
2022/06/26 07:05:29;;;;;;;7.42;2.90;;;;;;;24.92;53.15;99798.03;1730662;81;21012;-66
2022/06/26 07:07:58;;;;;;;13.18;3.08;;;;;;;24.98;53.50;99795.55;1707748;83;21590;-67
2022/06/26 07:10:27;;;;;;;4.12;2.65;;;;;;;25.03;53.43;99791.70;1697987;82;21068;-67
2022/06/26 07:13:00;;;;;;;5.15;2.92;;;;;;;25.10;53.35;99790.84;1720469;81;21075;-67
2022/06/26 07:15:26;;;;;;;6.45;3.00;;;;;;;25.16;53.24;99796.22;1724171;81;21762;-66
2022/06/26 07:17:53;;;;;;;5.65;2.60;;;;;;;25.23;52.66;99791.14;1714711;81;21024;-67
2022/06/26 07:20:22;;;;;;;3.17;2.83;;;;;;;25.31;52.75;99798.14;1710488;82;21138;-66
2022/06/26 07:22:52;;;;;;;3.37;2.40;;;;;;;25.37;52.86;99797.88;1719845;81;21058;-67
2022/06/26 07:25:23;;;;;;;7.67;2.25;;;;;;;25.35;51.53;99798.92;1717079;81;21075;-67
2022/06/26 07:28:00;;;;;;;2.33;1.87;;;;;;;25.33;51.02;99799.34;1726760;81;21229;-67
2022/06/26 07:30:26;;;;;;;2.85;2.17;;;;;;;25.35;50.57;99799.70;1734008;81;21017;-67
2022/06/26 07:35:42;;;;;;;5.47;2.40;;;;;;;25.47;50.99;99790.56;1701188;81;21095;-66
2022/06/26 07:38:11;;;;;;;4.58;2.83;;;;;;;25.56;51.26;99790.05;1715116;82;21039;-67
2022/06/26 07:40:38;;;;;;;6.17;2.47;;;;;;;25.63;51.02;99793.66;1708248;82;21621;-66
2022/06/26 07:43:05;;;;;;;3.40;2.33;;;;;;;25.76;51.24;99788.91;1712171;82;21072;-66
2022/06/26 07:45:33;;;;;;;4.90;1.90;;;;;;;25.87;50.65;99785.35;1725106;82;21050;-66
2022/06/26 07:48:03;;;;;;;4.97;2.12;;;;;;;25.96;49.57;99791.91;1700785;82;21077;-66
2022/06/26 07:50:33;;;;;;;5.85;2.30;;;;;;;26.00;49.46;99789.02;1667675;84;21022;-68
2022/06/26 07:53:03;;;;;;;3.72;2.05;;;;;;;26.04;50.19;99788.98;1693238;83;21176;-65
2022/06/26 07:55:31;;;;;;;3.90;2.40;;;;;;;26.09;49.98;99787.12;1689568;83;21075;-65
2022/06/26 07:57:58;;;;;;;10.05;2.70;;;;;;;26.13;49.79;99775.19;1687285;83;21110;-66
2022/06/26 08:00:24;;;;;;;3.80;2.40;;;;;;;26.12;49.78;99789.09;1703003;82;21093;-67
2022/06/26 08:02:53;;;;;;;5.20;2.47;;;;;;;26.05;49.66;99785.74;1692857;83;21087;-67
2022/06/26 08:05:19;;;;;;;2.58;2.00;;;;;;;25.88;49.27;99783.31;1703235;82;21190;-65
2022/06/26 08:07:46;;;;;;;5.10;2.92;;;;;;;25.78;50.39;99777.98;1667223;84;21498;-66
2022/06/26 08:10:15;;;;;;;7.92;2.20;;;;;;;25.79;50.60;99789.47;1690131;83;21058;-66
2022/06/26 08:12:41;;;;;;;7.03;2.30;;;;;;;25.88;50.01;99790.36;1705215;82;21082;-66
2022/06/26 08:15:10;;;;;;;4.17;1.80;;;;;;;25.99;50.12;99795.30;1689291;83;21480;-66
2022/06/26 08:17:40;;;;;;;4.17;1.90;;;;;;;26.10;50.18;99801.44;1711840;82;22086;-67
2022/06/26 08:20:08;;;;;;;3.15;2.37;;;;;;;26.20;50.26;99796.28;1704052;82;21681;-67
2022/06/26 08:22:37;;;;;;;3.00;2.40;;;;;;;26.31;50.10;99805.20;1686406;83;21581;-67
2022/06/26 08:25:04;;;;;;;6.28;2.12;;;;;;;26.37;50.36;99804.97;1705168;82;21078;-66
2022/06/26 08:27:32;;;;;;;5.65;1.70;;;;;;;26.45;48.35;99800.02;1687822;83;21060;-66
2022/06/26 08:29:58;;;;;;;2.22;2.02;;;;;;;26.46;45.83;99803.05;1699921;83;21490;-65
2022/06/26 08:32:26;;;;;;;4.75;1.65;;;;;;;26.53;47.05;99797.28;1685893;83;21592;-65
2022/06/26 08:34:52;;;;;;;1.60;1.47;;;;;;;26.69;47.82;99796.67;1701267;83;21560;-66
2022/06/26 08:37:19;;;;;;;6.70;1.95;;;;;;;26.88;46.94;99792.17;1698421;83;21038;-66
2022/06/26 08:39:48;;;;;;;2.60;1.70;;;;;;;27.05;46.07;99783.26;1705442;82;21071;-67
2022/06/26 08:42:17;;;;;;;18.45;2.45;;;;;;;27.08;44.82;99785.23;1705376;82;21742;-67
2022/06/26 08:44:45;;;;;;;7.87;2.00;;;;;;;27.02;44.24;99778.44;1693646;83;21064;-66
2022/06/26 08:47:13;;;;;;;4.37;2.22;;;;;;;26.94;43.99;99782.78;1701757;82;21070;-65
2022/06/26 08:49:41;;;;;;;4.85;1.75;;;;;;;26.83;43.76;99778.72;1696794;83;21556;-67
2022/06/26 08:52:10;;;;;;;29.87;3.33;;;;;;;26.71;43.78;99789.19;1703160;83;21089;-66
2022/06/26 08:54:37;;;;;;;8.20;2.30;;;;;;;26.65;43.82;99794.50;1696683;84;21098;-67
2022/06/26 08:57:08;;;;;;;14.83;2.70;;;;;;;26.64;44.82;99790.09;1703880;83;21124;-67
2022/06/26 08:59:35;;;;;;;5.15;2.22;;;;;;;26.69;45.65;99787.39;1693978;83;20992;-66
2022/06/26 09:02:03;;;;;;;9.03;2.35;;;;;;;26.80;46.50;99781.59;1696420;84;21032;-66
2022/06/26 09:04:29;;;;;;;5.50;1.90;;;;;;;26.93;46.45;99790.28;1693754;83;21021;-66
2022/06/26 09:06:59;;;;;;;4.60;1.95;;;;;;;27.05;46.09;99781.24;1685466;84;21041;-67
2022/06/26 09:09:27;;;;;;;5.37;2.17;;;;;;;27.12;46.08;99785.17;1685672;83;21091;-66
2022/06/26 09:12:00;;;;;;;2.72;1.90;;;;;;;27.10;44.90;99789.23;1695713;84;21093;-67
2022/06/26 09:14:28;;;;;;;10.48;1.98;;;;;;;26.98;44.85;99786.97;1676337;85;21083;-67
2022/06/26 09:16:55;;;;;;;6.75;2.08;;;;;;;26.88;44.98;99788.73;1685030;84;21010;-67
2022/06/26 09:19:28;;;;;;;5.20;1.87;;;;;;;26.78;44.86;99779.80;1701486;83;21609;-68
2022/06/26 09:22:16;;;;;;;4.30;2.02;;;;;;;26.69;44.81;99776.09;1696043;84;21078;-66
2022/06/26 09:25:03;;;;;;;7.45;2.30;;;;;;;26.63;44.65;99778.58;1676349;85;21066;-68
2022/06/26 09:27:37;;;;;;;5.60;2.00;;;;;;;26.60;44.87;99782.27;1693994;83;21005;-68
2022/06/26 09:30:06;;;;;;;10.53;2.25;;;;;;;26.66;46.72;99784.82;1702744;83;21897;-66
2022/06/26 09:32:33;;;;;;;8.33;2.42;;;;;;;26.82;45.89;99775.69;1697867;83;21663;-66
2022/06/26 09:35:02;;;;;;;3.27;1.75;;;;;;;26.98;45.86;99777.08;1693373;83;21023;-68
2022/06/26 09:37:36;;;;;;;8.30;2.20;;;;;;;27.16;45.44;99774.62;1696245;83;21631;-66
2022/06/26 09:40:04;;;;;;;3.62;1.98;;;;;;;27.27;44.89;99782.91;1696299;83;21081;-67
2022/06/26 09:42:34;;;;;;;6.40;2.02;;;;;;;27.30;44.42;99782.84;1698290;83;21141;-67
2022/06/26 09:45:01;;;;;;;20.55;2.75;;;;;;;27.33;44.72;99772.08;1697008;83;21258;-67
2022/06/26 09:47:34;;;;;;;10.35;1.90;;;;;;;27.38;43.97;99780.69;1688367;83;21013;-66
2022/06/26 09:50:04;;;;;;;6.05;1.85;;;;;;;27.48;44.57;99773.87;1726593;82;21050;-67
2022/06/26 09:52:33;;;;;;;4.08;1.50;;;;;;;27.63;43.89;99778.65;1727968;82;20994;-66
2022/06/26 09:55:04;;;;;;;6.53;1.80;;;;;;;27.72;43.92;99778.12;1722961;82;21026;-66
2022/06/26 09:57:33;;;;;;;6.50;2.15;;;;;;;27.79;44.01;99775.94;1721989;82;21238;-66
2022/06/26 10:00:00;;;;;;;5.17;1.90;;;;;;;27.84;43.82;99776.08;1712363;82;21046;-66
2022/06/26 10:08:06;;;;;;;3.40;1.90;;;;;;;27.53;41.47;99785.50;1710137;82;21065;-66
2022/06/26 10:10:37;;;;;;;7.70;2.00;;;;;;;27.43;42.19;99783.02;1711003;82;21149;-66
2022/06/26 10:13:08;;;;;;;3.45;2.17;;;;;;;27.43;42.83;99778.78;1717918;81;21173;-67
2022/06/26 10:15:39;;;;;;;4.37;1.65;;;;;;;27.48;43.10;99772.45;1728242;81;20996;-67
2022/06/26 10:18:14;;;;;;;9.03;1.90;;;;;;;27.48;43.15;99778.11;1712878;82;21063;-67
2022/06/26 10:20:41;;;;;;;3.47;2.33;;;;;;;27.46;43.09;99775.72;1703709;82;21551;-65
2022/06/26 10:23:08;;;;;;;3.77;2.25;;;;;;;27.42;42.94;99773.55;1739124;81;21122;-66
2022/06/26 10:25:34;;;;;;;3.83;2.77;;;;;;;27.40;42.96;99782.47;1734084;81;21032;-68
2022/06/26 10:28:01;;;;;;;7.90;2.40;;;;;;;27.43;43.53;99778.78;1730842;81;21056;-68
2022/06/26 10:30:31;;;;;;;4.50;1.72;;;;;;;27.48;44.01;99776.70;1728184;81;21017;-67
2022/06/26 10:33:20;;;;;;;1.55;1.45;;;;;;;27.51;43.27;99783.71;1723091;82;21043;-66
2022/06/26 10:35:49;;;;;;;3.95;2.25;;;;;;;27.49;42.68;99783.34;1729928;81;22009;-66
2022/06/26 10:38:24;;;;;;;7.53;2.10;;;;;;;27.41;43.02;99781.26;1715283;82;21024;-66
2022/06/26 10:44:12;;;;;;;6.60;1.98;;;;;;;27.37;43.69;99777.69;1720999;82;21066;-67
2022/06/26 10:46:47;;;;;;;4.10;1.90;;;;;;;27.35;43.67;99777.31;1714889;82;21063;-67
2022/06/26 10:49:13;;;;;;;6.65;2.15;;;;;;;27.31;43.44;99783.66;1716097;82;21844;-66
2022/06/26 10:51:43;;;;;;;4.42;1.92;;;;;;;27.25;43.85;99788.99;1704930;82;21034;-66
2022/06/26 10:54:32;;;;;;;5.25;2.10;;;;;;;27.17;44.18;99788.32;1726396;82;21089;-66
2022/06/26 10:57:15;;;;;;;3.98;1.98;;;;;;;27.10;44.87;99785.60;1725470;82;21574;-66
2022/06/26 10:59:54;;;;;;;7.35;2.05;;;;;;;27.07;44.68;99786.47;1733389;81;21068;-66
2022/06/26 11:02:20;;;;;;;6.37;2.12;;;;;;;27.08;45.35;99792.30;1730129;81;21308;-66
2022/06/26 11:04:48;;;;;;;5.80;2.33;;;;;;;27.08;45.66;99786.64;1714959;83;21079;-66
2022/06/26 11:07:17;;;;;;;5.33;2.20;;;;;;;27.07;45.47;99790.06;1705911;82;21032;-66
2022/06/26 11:09:46;;;;;;;3.92;1.77;;;;;;;27.00;45.37;99788.77;1713870;82;21000;-67
2022/06/26 11:12:13;;;;;;;3.40;2.08;;;;;;;26.95;45.86;99792.06;1708689;82;21126;-67
2022/06/26 11:14:41;;;;;;;45.90;5.75;;;;;;;26.90;45.85;99786.29;1716985;82;21217;-66
2022/06/26 11:17:08;;;;;;;5.10;2.72;;;;;;;26.88;45.69;99786.52;1718309;82;21121;-67
2022/06/26 11:20:46;;;;;;;5.83;2.62;;;;;;;26.91;46.46;99785.05;1716228;82;21524;-66
2022/06/26 11:22:11;;;;;;;9.25;2.58;;;;;;;27.02;46.59;99785.50;1717861;82;21122;-67
2022/06/26 11:24:49;;;;;;;13.38;2.30;;;;;;;27.11;46.20;99780.13;1695347;83;21088;-67
2022/06/26 11:27:24;;;;;;;5.22;2.17;;;;;;;27.15;45.47;99780.87;1708809;82;21601;-66
2022/06/26 11:29:52;;;;;;;;;;;;;;;27.17;45.36;99779.84;1722377;82;21016;-66
2022/06/26 11:32:23;;;;;;;3.27;2.50;;;;;;;27.20;45.48;99781.80;1712697;82;20206;-67
2022/06/26 11:34:55;;;;;;;6.97;2.52;;;;;;;27.27;45.72;99770.98;1712452;82;21314;-66
2022/06/26 11:37:35;;;;;;;5.15;2.10;;;;;;;27.46;45.59;99765.81;1719149;82;21008;-66
2022/06/26 11:40:13;;;;;;;7.80;2.22;;;;;;;27.64;45.66;99771.14;1711621;82;21148;-67
2022/06/26 11:42:42;;;;;;;4.53;1.82;;;;;;;27.80;45.49;99771.89;1711693;82;21018;-66
2022/06/26 11:45:10;;;;;;;6.35;1.90;;;;;;;27.93;45.02;99769.20;1712580;82;21770;-65
2022/06/26 11:47:38;;;;;;;3.75;2.20;;;;;;;28.05;44.43;99766.95;1709308;82;21555;-69
2022/06/26 11:50:19;;;;;;;3.60;1.82;;;;;;;28.21;44.35;99764.01;1717115;82;21420;-67
2022/06/26 11:52:47;;;;;;;6.90;2.60;;;;;;;28.31;43.57;99755.30;1712683;82;21146;-68
2022/06/26 11:55:13;;;;;;;8.33;2.00;;;;;;;28.46;43.69;99762.69;1717322;82;21048;-66
2022/06/26 11:57:44;;;;;;;2.05;1.60;;;;;;;28.59;43.54;99763.63;1712409;82;21046;-65